Nearby METAR Reports

 

KFNL - Ft Collins/Lovel, Colorado, USA
Distance from station: E 23mi, 37km
Updated: Thu, 26-May-2022 10:56pm MDT
Clear
Clear
 Wind from NNE
Wind: NNE 3 mph , 6 km/h
Temperature: 66°F , 19°C
Dew Point: 39°F , 4°C
Humidity: 37%
Barometer: 30.07 inHg , 1018.3 hPa
Clouds: Clear
Visibility: 10 miles , 16 km
2022/05/27 04:56 KFNL 270456Z 03003KT 10SM CLR 19/04 A3007 RMK AO2 SLP126 T01890039
KLMO - Longmont/Vbrand, Colorado, USA
Distance from station: SE 26mi, 41km
Updated: Thu, 26-May-2022 11:55pm MDT
Clear
Clear
 Wind from WSW
Wind: WSW 3 mph , 6 km/h
Temperature: 61°F , 16°C
Dew Point: 36°F , 2°C
Humidity: 39%
Barometer: 30.08 inHg , 1018.6 hPa
Clouds: Clear
Visibility: 10 miles , 16 km
2022/05/27 05:55 KLMO 270555Z AUTO 25003KT 10SM CLR 16/02 A3008 RMK AO2 T01610023 10290 20143
 
KBDU - Boulder Muni, Colorado, USA
Distance from station: SSE 32mi, 52km
Updated: Thu, 26-May-2022 11:55pm MDT
Clear
Clear
 Wind from WSW
Wind: WSW 3 mph , 6 km/h
Temperature: 66°F , 19°C
Dew Point: 28°F , -2°C
Humidity: 24%
Barometer: 30.07 inHg , 1018.3 hPa
Clouds: Clear
Visibility: 10 miles , 16 km
2022/05/27 05:55 KBDU 270555Z AUTO 24003KT 10SM CLR 19/M02 A3007 RMK AO2
KEIK - Erie Muni, Colorado, USA
Distance from station: SE 38mi, 61km
Updated: Thu, 26-May-2022 11:55pm MDT
Clear
Clear
 Wind from SSW
Wind: SSW 6 mph , 9 km/h
Temperature: 55°F , 13°C
Dew Point: 36°F , 2°C
Humidity: 47%
Barometer: 30.06 inHg , 1017.9 hPa
Clouds: Clear
Visibility: 10 miles , 16 km
2022/05/27 05:55 KEIK 270555Z AUTO 21005KT 10SM CLR 13/02 A3006 RMK AO2 T01340021 10281 20134 402820046 PWINO
 
KBJC - Broomfield/Jeffc, Colorado, USA
Distance from station: SSE 44mi, 70km
Updated: Thu, 26-May-2022 11:55pm MDT
Clear
Clear
 Wind from WSW
Wind: WSW 5 mph , 7 km/h
Temperature: 57°F , 14°C
Dew Point: 32°F , 0°C
Humidity: 39%
Barometer: 30.10 inHg , 1019.3 hPa
Clouds: Clear
Visibility: 10 miles , 16 km
2022/05/27 05:55 KBJC 270555Z AUTO 24004KT 10SM CLR 14/00 A3010 RMK AO2
KGXY - Greeley/Weld, Colorado, USA
Distance from station: E 44mi, 71km
Updated: Thu, 26-May-2022 11:56pm MDT
Clear
Clear
 Wind from N
Wind: N 6 mph , 9 km/h
Temperature: 55°F , 13°C
Dew Point: 36°F , 2°C
Humidity: 47%
Barometer: 30.06 inHg , 1017.9 hPa
Clouds: Clear
Visibility: 8 miles , 13 km
2022/05/27 05:56 KGXY 270556Z 35005KT 8SM CLR 13/02 A3006 RMK AO2 SLP145 T01330017 10300 20133 51008 $
 
K33V - Walden, Colorado, USA
Distance from station: WNW 48mi, 77km
Updated: Mon, 23-May-2022 3:50pm MDT
NOT Current
Overcast
Overcast
 Wind from calm
Wind: Calm
Barometer: 30.13 inHg , 1020.3 hPa
Clouds: Overcast
Visibility: 10 miles , 16 km
Cloud details: Partly cloudy 5500 ft
Overcast 7000 ft
2022/05/23 21:50 K33V 232150Z AUTO 00000KT 10SM SCT055 OVC070 A3013 RMK AO1
K0CO - Berthoud Pass, Colorado, USA
Distance from station: SSW 49mi, 79km
Updated: Thu, 26-May-2022 11:55pm MDT
Clear
Clear
 Wind from W
Wind: W 10 mph , 17 km/h, Gust: 17 mph , 28 km/h
Temperature: 39°F , 4°C
Wind Chill: 32°F , 0°C
Dew Point: 18°F , -8°C
Humidity: 42%
Barometer: 30.57 inHg , 1035.2 hPa
Clouds: Clear
2022/05/27 05:55 K0CO 270555Z AUTO 27009G15KT CLR 04/M08 A3057 RMK AO2 PWINO